createdAt,value
2022-12-15T00:00:51.862Z,-5.69
2022-12-15T00:01:51.822Z,-5.79
2022-12-15T00:02:51.918Z,-5.79
2022-12-15T00:03:51.836Z,-5.76
2022-12-15T00:04:51.758Z,-5.83
2022-12-15T00:05:51.747Z,-5.76
2022-12-15T00:06:51.777Z,-5.76
2022-12-15T00:07:51.734Z,-5.83
2022-12-15T00:08:51.719Z,-5.79
2022-12-15T00:09:51.709Z,-5.80
2022-12-15T00:10:51.711Z,-5.84
2022-12-15T00:11:51.690Z,-5.72
2022-12-15T00:12:51.674Z,-5.80
2022-12-15T00:13:51.666Z,-5.84
2022-12-15T00:14:51.661Z,-5.84
2022-12-15T00:15:51.774Z,-5.84
2022-12-15T00:16:51.632Z,-5.84
2022-12-15T00:17:51.653Z,-5.94
2022-12-15T00:18:51.616Z,-5.84
2022-12-15T00:19:51.606Z,-5.97
2022-12-15T00:20:51.590Z,-5.90
2022-12-15T00:21:51.591Z,-5.89
2022-12-15T00:22:51.571Z,-6.01
2022-12-15T00:23:51.571Z,-5.86
2022-12-15T00:24:51.552Z,-5.97
2022-12-15T00:25:51.542Z,-5.92
2022-12-15T00:26:51.527Z,-5.89
2022-12-15T00:27:51.525Z,-5.92
2022-12-15T00:28:51.505Z,-5.98
2022-12-15T00:29:51.501Z,-5.98
2022-12-15T00:30:51.509Z,-5.97
2022-12-15T00:31:51.546Z,-6.00
2022-12-15T00:32:51.466Z,-5.97
2022-12-15T00:33:51.490Z,-5.92
2022-12-15T00:34:51.446Z,-5.97
2022-12-15T00:35:51.436Z,-5.94
2022-12-15T00:36:51.420Z,-5.97
2022-12-15T00:37:51.415Z,-5.97
2022-12-15T00:38:51.409Z,-5.93
2022-12-15T00:39:51.396Z,-5.93
2022-12-15T00:41:51.374Z,-5.93
2022-12-15T00:42:51.364Z,-5.94
2022-12-15T00:43:51.351Z,-6.07
2022-12-15T00:44:51.347Z,-5.98
2022-12-15T00:45:51.354Z,-6.00
2022-12-15T00:46:51.447Z,-6.00
2022-12-15T00:47:51.306Z,-6.01
2022-12-15T00:48:51.299Z,-5.94
2022-12-15T00:49:51.316Z,-5.94
2022-12-15T00:50:51.277Z,-5.93
2022-12-15T00:51:51.263Z,-5.93
2022-12-15T00:52:51.256Z,-5.93
2022-12-15T00:53:51.243Z,-5.82
2022-12-15T00:54:51.232Z,-5.84
2022-12-15T00:55:51.216Z,-5.87
2022-12-15T00:56:51.213Z,-5.98
2022-12-15T00:57:51.197Z,-5.97
2022-12-15T00:58:51.198Z,-5.97
2022-12-15T00:59:51.182Z,-6.00
2022-12-15T01:00:51.171Z,-6.03
2022-12-15T01:01:51.297Z,-5.98
2022-12-15T01:02:51.461Z,-6.00
2022-12-15T01:03:51.223Z,-5.94
2022-12-15T01:04:51.132Z,-6.15
2022-12-15T01:05:51.136Z,-6.10
2022-12-15T01:06:51.108Z,-6.16
2022-12-15T01:07:51.092Z,-6.29
2022-12-15T01:08:51.082Z,-6.31
2022-12-15T01:09:51.071Z,-6.28
2022-12-15T01:10:51.063Z,-6.42
2022-12-15T01:11:51.048Z,-6.44
2022-12-15T01:12:51.046Z,-6.39
2022-12-15T01:13:51.030Z,-6.46
2022-12-15T01:14:51.057Z,-6.43
2022-12-15T01:15:51.041Z,-6.43
2022-12-15T01:16:51.004Z,-6.46
2022-12-15T01:17:50.985Z,-6.32
2022-12-15T01:18:50.975Z,-6.34
2022-12-15T01:19:50.962Z,-6.39
2022-12-15T01:20:50.958Z,-6.28
2022-12-15T01:21:50.980Z,-6.25
2022-12-15T01:22:50.941Z,-6.28
2022-12-15T01:23:50.954Z,-6.25
2022-12-15T01:24:50.921Z,-6.31
2022-12-15T01:25:50.897Z,-6.32
2022-12-15T01:26:50.892Z,-6.29
2022-12-15T01:27:50.880Z,-6.26
2022-12-15T01:28:50.867Z,-6.28
2022-12-15T01:29:50.859Z,-6.23
2022-12-15T01:30:50.868Z,-6.28
2022-12-15T01:31:50.908Z,-6.31
2022-12-15T01:32:50.823Z,-6.26
2022-12-15T01:33:50.814Z,-6.36
2022-12-15T01:34:50.804Z,-6.36
2022-12-15T01:35:50.789Z,-6.36
2022-12-15T01:36:50.788Z,-6.31
2022-12-15T01:37:50.796Z,-6.28
2022-12-15T01:38:54.095Z,-6.31
2022-12-15T01:39:50.747Z,-6.18
2022-12-15T01:40:50.741Z,-6.31
2022-12-15T01:41:50.726Z,-6.25
2022-12-15T01:42:50.719Z,-6.39
2022-12-15T01:43:50.704Z,-6.34
2022-12-15T01:44:50.701Z,-6.29
2022-12-15T01:45:50.679Z,-6.21
2022-12-15T01:46:50.741Z,-6.08
2022-12-15T01:47:50.663Z,-6.11
2022-12-15T01:48:50.654Z,-5.98
2022-12-15T01:49:50.641Z,-6.05
2022-12-15T01:50:50.632Z,-6.03
2022-12-15T01:51:50.615Z,-6.05
2022-12-15T01:52:50.614Z,-6.08
2022-12-15T01:53:50.619Z,-6.15
2022-12-15T01:54:50.587Z,-6.03
2022-12-15T01:55:50.574Z,-6.11
2022-12-15T01:56:50.572Z,-6.03
2022-12-15T01:57:50.556Z,-6.00
2022-12-15T01:58:50.552Z,-6.08
2022-12-15T01:59:50.537Z,-6.01
2022-12-15T02:00:50.556Z,-6.05
2022-12-15T02:01:50.659Z,-6.01
2022-12-15T02:02:50.600Z,-6.19
2022-12-15T02:03:50.489Z,-6.16
2022-12-15T02:04:50.485Z,-6.19
2022-12-15T02:05:50.467Z,-6.18
2022-12-15T02:06:50.461Z,-6.26
2022-12-15T02:07:50.457Z,-6.23
2022-12-15T02:08:50.433Z,-6.25
2022-12-15T02:09:50.453Z,-6.25
2022-12-15T02:10:50.411Z,-6.26
2022-12-15T02:11:50.410Z,-6.31
2022-12-15T02:12:50.396Z,-6.23
2022-12-15T02:13:50.384Z,-6.22
2022-12-15T02:14:50.370Z,-6.28
2022-12-15T02:15:50.396Z,-6.22
2022-12-15T02:16:50.403Z,-6.29
2022-12-15T02:17:50.343Z,-6.32
2022-12-15T02:18:50.324Z,-6.29
2022-12-15T02:19:50.327Z,-6.39
2022-12-15T02:20:50.312Z,-6.47
2022-12-15T02:21:50.299Z,-6.55
2022-12-15T02:22:50.279Z,-6.66
2022-12-15T02:23:50.277Z,-6.59
2022-12-15T02:24:50.261Z,-6.65
2022-12-15T02:25:50.877Z,-6.50
2022-12-15T02:26:50.240Z,-6.54
2022-12-15T02:27:50.236Z,-6.63
2022-12-15T02:28:50.220Z,-6.52
2022-12-15T02:29:50.211Z,-6.59
2022-12-15T02:30:50.194Z,-6.59
2022-12-15T02:31:50.586Z,-6.55
2022-12-15T02:32:50.177Z,-6.52
2022-12-15T02:33:50.170Z,-6.62
2022-12-15T02:34:50.150Z,-6.54
2022-12-15T02:35:50.143Z,-6.54
2022-12-15T02:36:50.133Z,-6.47
2022-12-15T02:37:50.243Z,-6.39
2022-12-15T02:38:50.111Z,-6.36
2022-12-15T02:39:50.104Z,-6.37
2022-12-15T02:40:50.087Z,-6.36
2022-12-15T02:41:50.106Z,-6.28
2022-12-15T02:42:50.069Z,-6.32
2022-12-15T02:43:50.053Z,-6.31
2022-12-15T02:44:50.046Z,-6.16
2022-12-15T02:45:50.093Z,-6.21
2022-12-15T02:46:50.024Z,-6.11
2022-12-15T02:47:50.015Z,-6.01
2022-12-15T02:48:50.000Z,-5.97
2022-12-15T02:49:50.090Z,-6.00
2022-12-15T02:50:49.979Z,-6.01
2022-12-15T02:51:49.971Z,-5.97
2022-12-15T02:52:49.960Z,-5.80
2022-12-15T02:53:49.946Z,-5.79
2022-12-15T02:54:49.936Z,-5.72
2022-12-15T02:55:50.335Z,-5.64
2022-12-15T02:56:49.916Z,-5.64
2022-12-15T02:57:49.928Z,-5.44
2022-12-15T02:58:50.654Z,-5.39
2022-12-15T02:59:49.881Z,-5.22
2022-12-15T03:00:49.912Z,-5.17
2022-12-15T03:01:50.224Z,-5.07
2022-12-15T03:02:49.998Z,-5.18
2022-12-15T03:03:49.839Z,-5.11
2022-12-15T03:04:49.831Z,-5.04
2022-12-15T03:05:49.819Z,-5.07
2022-12-15T03:06:49.802Z,-4.90
2022-12-15T03:07:49.909Z,-4.87
2022-12-15T03:08:49.782Z,-4.86
2022-12-15T03:09:49.777Z,-4.71
2022-12-15T03:10:49.763Z,-4.67
2022-12-15T03:11:49.760Z,-4.56
2022-12-15T03:12:49.740Z,-4.60
2022-12-15T03:13:49.973Z,-4.67
2022-12-15T03:14:49.721Z,-4.79
2022-12-15T03:15:49.711Z,-4.92
2022-12-15T03:16:49.771Z,-5.07
2022-12-15T03:17:49.690Z,-5.14
2022-12-15T03:18:49.676Z,-5.25
2022-12-15T03:19:49.966Z,-5.44
2022-12-15T03:20:49.674Z,-5.47
2022-12-15T03:21:49.647Z,-5.65
2022-12-15T03:22:49.635Z,-5.68
2022-12-15T03:23:49.622Z,-5.69
2022-12-15T03:24:49.611Z,-5.69
2022-12-15T03:25:50.011Z,-5.69
2022-12-15T03:26:49.591Z,-5.79
2022-12-15T03:27:49.584Z,-5.75
2022-12-15T03:28:49.573Z,-5.89
2022-12-15T03:29:49.583Z,-5.92
2022-12-15T03:30:50.457Z,-6.00
2022-12-15T03:31:49.706Z,-6.15
2022-12-15T03:32:49.525Z,-6.16
2022-12-15T03:33:49.515Z,-6.11
2022-12-15T03:34:49.505Z,-6.13
2022-12-15T03:35:49.502Z,-6.15
2022-12-15T03:36:49.486Z,-6.18
2022-12-15T03:37:49.685Z,-6.04
2022-12-15T03:38:49.459Z,-6.04
2022-12-15T03:39:49.456Z,-5.98
2022-12-15T03:40:49.448Z,-5.93
2022-12-15T03:41:49.433Z,-5.83
2022-12-15T03:42:49.421Z,-5.87
2022-12-15T03:43:50.151Z,-5.71
2022-12-15T03:44:49.401Z,-5.72
2022-12-15T03:45:49.455Z,-5.69
2022-12-15T03:46:49.378Z,-5.66
2022-12-15T03:47:49.366Z,-5.79
2022-12-15T03:48:49.361Z,-5.76
2022-12-15T03:49:49.347Z,-5.80
2022-12-15T03:50:49.332Z,-5.79
2022-12-15T03:51:49.329Z,-5.71
2022-12-15T03:52:49.313Z,-5.82
2022-12-15T03:53:49.329Z,-5.79
2022-12-15T03:54:49.289Z,-5.89
2022-12-15T03:55:49.283Z,-5.79
2022-12-15T03:56:49.272Z,-5.79
2022-12-15T03:57:49.263Z,-5.75
2022-12-15T03:58:49.247Z,-5.61
2022-12-15T03:59:49.241Z,-5.64
2022-12-15T04:00:49.228Z,-5.65
2022-12-15T04:01:49.605Z,-5.68
2022-12-15T04:02:50.539Z,-5.53
2022-12-15T04:03:49.303Z,-5.33
2022-12-15T04:04:49.183Z,-5.43
2022-12-15T04:05:49.174Z,-5.32
2022-12-15T04:06:49.169Z,-5.32
2022-12-15T04:07:49.155Z,-5.11
2022-12-15T04:08:49.770Z,-5.13
2022-12-15T04:09:49.134Z,-5.08
2022-12-15T04:10:49.119Z,-4.95
2022-12-15T04:11:49.117Z,-4.78
2022-12-15T04:12:49.100Z,-4.87
2022-12-15T04:13:49.106Z,-4.85
2022-12-15T04:14:49.547Z,-4.63
2022-12-15T04:15:49.067Z,-4.40
2022-12-15T04:16:49.093Z,-4.33
2022-12-15T04:17:49.078Z,-4.32
2022-12-15T04:18:49.037Z,-4.25
2022-12-15T04:19:49.031Z,-4.14
2022-12-15T04:20:50.205Z,-4.18
2022-12-15T04:21:49.014Z,-4.06
2022-12-15T04:22:49.009Z,-3.99
2022-12-15T04:23:48.985Z,-4.10
2022-12-15T04:24:48.975Z,-4.11
2022-12-15T04:25:48.963Z,-3.99
2022-12-15T04:26:48.950Z,-3.97
2022-12-15T04:27:48.948Z,-4.06
2022-12-15T04:28:48.933Z,-4.10
2022-12-15T04:29:48.927Z,-4.14
2022-12-15T04:30:48.986Z,-4.25
2022-12-15T04:31:48.906Z,-4.21
2022-12-15T04:32:49.737Z,-4.12
2022-12-15T04:33:48.911Z,-3.99
2022-12-15T04:34:48.867Z,-3.82
2022-12-15T04:35:49.845Z,-3.71
2022-12-15T04:36:48.848Z,-3.67
2022-12-15T04:37:48.839Z,-3.66
2022-12-15T04:38:48.827Z,-3.59
2022-12-15T04:39:48.820Z,-3.67
2022-12-15T04:40:48.807Z,-3.83
2022-12-15T04:41:48.799Z,-3.79
2022-12-15T04:42:48.788Z,-3.96
2022-12-15T04:43:48.779Z,-4.04
2022-12-15T04:44:50.339Z,-4.12
2022-12-15T04:45:48.787Z,-4.04
2022-12-15T04:46:48.753Z,-4.12
2022-12-15T04:47:48.889Z,-4.14
2022-12-15T04:48:48.726Z,-4.15
2022-12-15T04:49:48.742Z,-4.17
2022-12-15T04:50:48.702Z,-4.07
2022-12-15T04:51:48.703Z,-4.12
2022-12-15T04:52:48.686Z,-4.10
2022-12-15T04:53:48.678Z,-4.03
2022-12-15T04:54:48.663Z,-3.94
2022-12-15T04:55:48.655Z,-3.85
2022-12-15T04:56:50.012Z,-3.86
2022-12-15T04:57:48.635Z,-3.97
2022-12-15T04:58:48.620Z,-4.00
2022-12-15T04:59:48.632Z,-4.04
2022-12-15T05:00:48.602Z,-4.04
2022-12-15T05:01:48.756Z,-3.91
2022-12-15T05:02:49.885Z,-4.10
2022-12-15T05:03:48.581Z,-4.14
2022-12-15T05:04:48.704Z,-4.07
2022-12-15T05:05:48.583Z,-4.12
2022-12-15T05:06:48.541Z,-4.11
2022-12-15T05:07:48.546Z,-3.97
2022-12-15T05:08:50.033Z,-3.88
2022-12-15T05:09:48.513Z,-3.97
2022-12-15T05:10:48.503Z,-3.91
2022-12-15T05:11:48.497Z,-3.90
2022-12-15T05:12:48.483Z,-3.86
2022-12-15T05:13:48.476Z,-3.94
2022-12-15T05:14:49.628Z,-3.88
2022-12-15T05:15:48.503Z,-3.96
2022-12-15T05:16:48.460Z,-3.90
2022-12-15T05:17:48.435Z,-3.99
2022-12-15T05:18:48.424Z,-4.04
2022-12-15T05:19:48.419Z,-3.99
2022-12-15T05:20:49.806Z,-3.91
2022-12-15T05:21:48.426Z,-3.85
2022-12-15T05:22:48.383Z,-3.83
2022-12-15T05:23:48.375Z,-3.78
2022-12-15T05:24:48.369Z,-3.99
2022-12-15T05:25:48.355Z,-3.90
2022-12-15T05:26:52.547Z,-3.97
2022-12-15T05:27:48.336Z,-3.88
2022-12-15T05:28:48.322Z,-3.85
2022-12-15T05:29:48.318Z,-3.69
2022-12-15T05:30:48.370Z,-3.60
2022-12-15T05:31:48.297Z,-3.63
2022-12-15T05:32:48.284Z,-3.57
2022-12-15T05:33:48.274Z,-3.59
2022-12-15T05:35:48.259Z,-3.52
2022-12-15T05:36:48.246Z,-3.53
2022-12-15T05:37:48.255Z,-3.64
2022-12-15T05:38:48.234Z,-3.78
2022-12-15T05:39:48.217Z,-3.64
2022-12-15T05:40:48.213Z,-3.63
2022-12-15T05:41:48.190Z,-3.69
2022-12-15T05:42:50.157Z,-3.57
2022-12-15T05:43:48.174Z,-3.69
2022-12-15T05:44:48.169Z,-3.67
2022-12-15T05:45:48.154Z,-3.69
2022-12-15T05:46:48.278Z,-3.79
2022-12-15T05:47:48.140Z,-3.69
2022-12-15T05:48:48.128Z,-3.66
2022-12-15T05:49:48.114Z,-3.72
2022-12-15T05:50:48.108Z,-3.71
2022-12-15T05:51:48.095Z,-3.75
2022-12-15T05:52:49.658Z,-3.82
2022-12-15T05:53:48.099Z,-3.83
2022-12-15T05:54:48.069Z,-3.90
2022-12-15T05:55:48.054Z,-3.88
2022-12-15T05:56:50.052Z,-3.99
2022-12-15T05:57:48.039Z,-3.91
2022-12-15T05:58:48.028Z,-4.12
2022-12-15T05:59:48.023Z,-4.00
2022-12-15T06:00:48.009Z,-3.85
2022-12-15T06:01:48.106Z,-3.85
2022-12-15T06:02:48.034Z,-3.75
2022-12-15T06:03:47.976Z,-3.59
2022-12-15T06:04:48.110Z,-3.56
2022-12-15T06:05:53.077Z,-3.43
2022-12-15T06:06:47.955Z,-3.53
2022-12-15T06:07:47.946Z,-3.46
2022-12-15T06:08:50.173Z,-3.59
2022-12-15T06:09:47.943Z,-3.66
2022-12-15T06:10:47.913Z,-3.81
2022-12-15T06:11:47.898Z,-3.81
2022-12-15T06:12:47.892Z,-3.93
2022-12-15T06:13:47.882Z,-3.91
2022-12-15T06:14:47.869Z,-3.86
2022-12-15T06:15:47.876Z,-3.91
2022-12-15T06:16:51.168Z,-4.01
2022-12-15T06:17:49.768Z,-3.97
2022-12-15T06:18:50.067Z,-3.99
2022-12-15T06:19:47.825Z,-4.15
2022-12-15T06:20:49.697Z,-4.12
2022-12-15T06:21:47.802Z,-3.96
2022-12-15T06:22:50.207Z,-3.63
2022-12-15T06:23:47.783Z,-3.54
2022-12-15T06:24:47.774Z,-3.64
2022-12-15T06:25:47.789Z,-3.59
2022-12-15T06:26:49.626Z,-3.54
2022-12-15T06:27:47.744Z,-3.46
2022-12-15T06:28:47.736Z,-3.38
2022-12-15T06:29:47.725Z,-3.52
2022-12-15T06:30:47.710Z,-3.41
2022-12-15T06:31:47.868Z,-3.43
2022-12-15T06:32:49.994Z,-3.39
2022-12-15T06:33:47.689Z,-3.41
2022-12-15T06:34:47.678Z,-3.42
2022-12-15T06:35:47.666Z,-3.49
2022-12-15T06:36:47.660Z,-3.49
2022-12-15T06:37:47.652Z,-3.46
2022-12-15T06:38:49.907Z,-3.49
2022-12-15T06:39:47.636Z,-3.56
2022-12-15T06:40:47.620Z,-3.52
2022-12-15T06:41:47.636Z,-3.59
2022-12-15T06:42:47.595Z,-3.41
2022-12-15T06:43:47.588Z,-3.43
2022-12-15T06:44:47.581Z,-3.59
2022-12-15T06:45:47.569Z,-3.60
2022-12-15T06:46:47.559Z,-3.60
2022-12-15T06:47:47.551Z,-3.59
2022-12-15T06:48:47.546Z,-3.57
2022-12-15T06:49:47.526Z,-3.59
2022-12-15T06:50:47.516Z,-3.62
2022-12-15T06:51:47.510Z,-3.56
2022-12-15T06:52:47.500Z,-3.56
2022-12-15T06:53:47.492Z,-3.56
2022-12-15T06:54:47.477Z,-3.46
2022-12-15T06:55:47.473Z,-3.35
2022-12-15T06:56:50.034Z,-3.49
2022-12-15T06:57:47.474Z,-3.59
2022-12-15T06:58:47.436Z,-3.43
2022-12-15T06:59:47.434Z,-3.46
2022-12-15T07:00:47.420Z,-3.36
2022-12-15T07:01:47.613Z,-3.38
2022-12-15T07:05:30.676Z,-3.53
2022-12-15T07:06:30.673Z,-3.46
2022-12-15T07:07:30.655Z,-3.53
2022-12-15T07:08:34.232Z,-3.56
2022-12-15T07:09:30.639Z,-3.63
2022-12-15T07:10:30.632Z,-3.64
2022-12-15T07:11:30.617Z,-3.97
2022-12-15T07:12:30.613Z,-4.03
2022-12-15T07:13:31.140Z,-3.96
2022-12-15T07:14:30.594Z,-3.97
2022-12-15T07:15:30.579Z,-3.86
2022-12-15T07:16:30.719Z,-3.69
2022-12-15T07:17:30.565Z,-3.57
2022-12-15T07:18:30.554Z,-3.39
2022-12-15T07:19:30.539Z,-3.42
2022-12-15T07:20:30.537Z,-3.57
2022-12-15T07:21:30.532Z,-3.69
2022-12-15T07:22:30.514Z,-3.56
2022-12-15T07:23:53.444Z,-3.53
2022-12-15T07:24:30.494Z,-3.60
2022-12-15T07:25:30.480Z,-3.57
2022-12-15T07:26:30.522Z,-3.56
2022-12-15T07:27:30.472Z,-3.62
2022-12-15T07:28:30.932Z,-3.57
2022-12-15T07:29:30.476Z,-3.53
2022-12-15T07:30:36.792Z,-3.60
2022-12-15T07:31:30.486Z,-3.69
2022-12-15T07:32:30.418Z,-3.75
2022-12-15T07:33:30.883Z,-3.60
2022-12-15T07:34:30.397Z,-3.67
2022-12-15T07:35:30.859Z,-3.75
2022-12-15T07:36:30.374Z,-3.67
2022-12-15T07:37:30.367Z,-3.59
2022-12-15T07:38:30.356Z,-3.54
2022-12-15T07:39:30.344Z,-3.39
2022-12-15T07:40:30.339Z,-3.38
2022-12-15T07:41:30.363Z,-3.53
2022-12-15T07:42:30.316Z,-3.54
2022-12-15T07:43:30.835Z,-3.46
2022-12-15T07:44:30.291Z,-3.39
2022-12-15T07:45:30.346Z,-3.38
2022-12-15T07:46:31.160Z,-3.45
2022-12-15T07:47:30.274Z,-3.49
2022-12-15T07:48:30.261Z,-3.53
2022-12-15T07:49:30.242Z,-3.53
2022-12-15T07:50:30.237Z,-3.60
2022-12-15T07:51:30.224Z,-3.53
2022-12-15T07:52:30.217Z,-3.66
2022-12-15T07:53:30.765Z,-3.64
2022-12-15T07:54:30.203Z,-3.83
2022-12-15T07:55:57.137Z,-3.78
2022-12-15T07:56:33.258Z,-3.76
2022-12-15T07:57:30.166Z,-3.81
2022-12-15T07:58:30.157Z,-3.90
2022-12-15T07:59:30.141Z,-3.88
2022-12-15T08:00:30.142Z,-3.88
2022-12-15T08:01:30.277Z,-3.86
2022-12-15T08:02:30.457Z,-3.75
2022-12-15T08:03:30.842Z,-3.67
2022-12-15T08:04:30.097Z,-3.56
2022-12-15T08:05:30.090Z,-3.63
2022-12-15T08:06:30.094Z,-3.57
2022-12-15T08:07:30.066Z,-3.56
2022-12-15T08:08:30.626Z,-3.67
2022-12-15T08:09:30.054Z,-3.39
2022-12-15T08:10:30.047Z,-3.52
2022-12-15T08:11:30.043Z,-3.45
2022-12-15T08:12:30.034Z,-3.42
2022-12-15T08:14:01.404Z,-3.07
2022-12-15T08:14:30.023Z,-3.00
2022-12-15T08:15:29.989Z,-3.02
2022-12-15T08:16:30.051Z,-3.03
2022-12-15T08:17:30.025Z,-3.17
2022-12-15T08:18:29.967Z,-3.27
2022-12-15T08:19:29.947Z,-3.20
2022-12-15T08:20:29.993Z,-3.15
2022-12-15T08:21:29.935Z,-3.14
2022-12-15T08:22:29.927Z,-3.00
2022-12-15T08:23:30.329Z,-2.96
2022-12-15T08:24:29.904Z,-3.02
2022-12-15T08:25:29.894Z,-3.05
2022-12-15T08:26:31.088Z,-3.02
2022-12-15T08:27:29.872Z,-2.96
2022-12-15T08:28:29.871Z,-3.05
2022-12-15T08:29:50.810Z,-2.99
2022-12-15T08:30:29.847Z,-3.12
2022-12-15T08:31:29.942Z,-3.12
2022-12-15T08:32:29.833Z,-3.17
2022-12-15T08:33:30.239Z,-3.12
2022-12-15T08:34:29.810Z,-2.97
2022-12-15T08:35:55.184Z,-2.91
2022-12-15T08:36:29.792Z,-2.92
2022-12-15T08:37:29.776Z,-3.02
2022-12-15T08:38:29.769Z,-3.28
2022-12-15T08:39:29.757Z,-3.36
2022-12-15T08:40:29.754Z,-3.30
2022-12-15T08:41:29.741Z,-3.25
2022-12-15T08:42:29.730Z,-3.21
2022-12-15T08:43:30.234Z,-3.21
2022-12-15T08:44:29.713Z,-3.03
2022-12-15T08:45:29.738Z,-2.91
2022-12-15T08:46:29.801Z,-2.74
2022-12-15T08:47:29.681Z,-2.67
2022-12-15T08:48:29.677Z,-2.66
2022-12-15T08:49:29.693Z,-2.53
2022-12-15T08:50:29.659Z,-2.37
2022-12-15T08:51:29.650Z,-2.10
2022-12-15T08:52:29.646Z,-1.97
2022-12-15T08:53:31.657Z,-2.00
2022-12-15T08:54:29.623Z,-1.85
2022-12-15T08:55:29.608Z,-1.92
2022-12-15T08:56:29.604Z,-1.91
2022-12-15T08:57:29.586Z,-1.84
2022-12-15T08:58:29.589Z,-1.51
2022-12-15T08:59:29.579Z,-1.37
2022-12-15T09:00:29.571Z,-1.16
2022-12-15T09:01:29.731Z,-1.35
2022-12-15T09:02:29.747Z,-1.35
2022-12-15T09:03:30.002Z,-1.35
2022-12-15T09:04:29.586Z,-1.40
2022-12-15T09:05:29.547Z,-1.37
2022-12-15T09:06:29.511Z,-1.48
2022-12-15T09:07:29.506Z,-1.30
2022-12-15T09:08:29.494Z,-1.49
2022-12-15T09:09:29.485Z,-1.62
2022-12-15T09:10:29.475Z,-1.62
2022-12-15T09:11:29.467Z,-1.62
2022-12-15T09:12:29.465Z,-1.64
2022-12-15T09:13:30.176Z,-1.48
2022-12-15T09:14:29.800Z,-1.40
2022-12-15T09:15:59.728Z,-1.25
2022-12-15T09:16:29.495Z,-1.27
2022-12-15T09:17:29.462Z,-1.35
2022-12-15T09:18:29.407Z,-1.28
2022-12-15T09:19:29.397Z,-1.20
2022-12-15T09:20:29.394Z,-1.20
2022-12-15T09:21:29.395Z,-0.92
2022-12-15T09:22:29.378Z,-0.70
2022-12-15T09:23:29.879Z,-0.34
2022-12-15T09:24:34.952Z,-0.37
2022-12-15T09:25:29.348Z,-0.19
2022-12-15T09:26:29.672Z,0.07
2022-12-15T09:27:29.329Z,0.02
2022-12-15T09:28:29.324Z,0.24
2022-12-15T09:29:29.322Z,0.58
2022-12-15T09:30:29.425Z,0.91
2022-12-15T09:31:29.425Z,1.27
2022-12-15T09:32:29.294Z,1.62
2022-12-15T09:33:29.586Z,1.73
2022-12-15T09:34:29.282Z,2.17
2022-12-15T09:35:29.273Z,2.39
2022-12-15T09:36:29.264Z,2.74
2022-12-15T09:37:29.281Z,3.00
2022-12-15T09:38:29.248Z,3.43
2022-12-15T09:39:29.240Z,3.73
2022-12-15T09:40:29.234Z,3.98
2022-12-15T09:41:29.226Z,4.04
2022-12-15T09:42:29.219Z,4.09
2022-12-15T09:43:41.440Z,4.27
2022-12-15T09:44:29.204Z,4.66
2022-12-15T09:45:29.197Z,4.91
2022-12-15T09:46:29.282Z,5.15
2022-12-15T09:47:29.181Z,5.27
2022-12-15T09:48:29.180Z,5.53
2022-12-15T09:49:29.168Z,5.46
2022-12-15T09:50:29.161Z,5.60
2022-12-15T09:51:29.153Z,5.72
2022-12-15T09:52:29.323Z,5.79
2022-12-15T09:53:54.310Z,5.49
2022-12-15T09:54:29.272Z,5.60
2022-12-15T09:55:29.129Z,5.74
2022-12-15T09:56:29.119Z,5.60
2022-12-15T09:57:29.116Z,5.36
2022-12-15T09:58:29.113Z,5.48
2022-12-15T09:59:29.100Z,5.51
2022-12-15T10:00:29.092Z,5.60
2022-12-15T10:01:29.232Z,5.71
2022-12-15T10:02:29.181Z,5.94
2022-12-15T10:03:29.694Z,5.58
2022-12-15T10:04:29.159Z,5.28
2022-12-15T10:05:50.001Z,5.31
2022-12-15T10:06:33.130Z,5.27
2022-12-15T10:07:29.046Z,5.22
2022-12-15T10:08:29.038Z,5.27
2022-12-15T10:09:29.054Z,5.25
2022-12-15T10:10:29.028Z,5.31
2022-12-15T10:11:29.009Z,5.24
2022-12-15T10:12:29.018Z,5.21
2022-12-15T10:13:29.489Z,5.04
2022-12-15T10:14:29.000Z,4.86
2022-12-15T10:15:29.060Z,4.32
2022-12-15T10:16:28.990Z,3.93
2022-12-15T10:17:28.977Z,3.75
2022-12-15T10:18:28.969Z,3.39
2022-12-15T10:19:28.961Z,3.13
2022-12-15T10:20:28.976Z,2.97
2022-12-15T10:21:28.948Z,2.90
2022-12-15T10:22:28.945Z,2.78
2022-12-15T10:23:29.633Z,2.78
2022-12-15T10:25:08.080Z,2.79
2022-12-15T10:25:30.760Z,2.52
2022-12-15T10:26:28.925Z,2.54
2022-12-15T10:27:28.909Z,2.52
2022-12-15T10:28:28.909Z,2.54
2022-12-15T10:29:28.929Z,2.54
2022-12-15T10:30:29.137Z,2.38
2022-12-15T10:31:28.991Z,2.52
2022-12-15T10:32:28.887Z,2.34
2022-12-15T10:33:29.251Z,2.12
2022-12-15T10:34:28.979Z,2.18
2022-12-15T10:35:28.876Z,2.25
2022-12-15T10:36:28.852Z,2.28
2022-12-15T10:37:28.847Z,2.27
2022-12-15T10:38:28.843Z,2.35
2022-12-15T10:39:28.830Z,2.31
2022-12-15T10:40:28.827Z,2.24
2022-12-15T10:41:28.843Z,2.09
2022-12-15T10:42:28.815Z,2.17
2022-12-15T10:43:29.439Z,2.12
2022-12-15T10:44:32.205Z,1.98
2022-12-15T10:45:28.790Z,2.02
2022-12-15T10:46:28.862Z,1.90
2022-12-15T10:47:28.779Z,1.86
2022-12-15T10:48:28.775Z,1.80
2022-12-15T10:49:28.769Z,1.86
2022-12-15T10:50:28.763Z,1.76
2022-12-15T10:51:28.756Z,1.79
2022-12-15T10:52:28.756Z,1.73
2022-12-15T10:53:29.039Z,1.91
2022-12-15T10:54:28.746Z,2.02
2022-12-15T10:55:28.729Z,1.91
2022-12-15T10:57:28.737Z,1.81
2022-12-15T10:58:28.713Z,1.81
2022-12-15T10:59:28.704Z,1.93
2022-12-15T11:00:28.738Z,1.91
2022-12-15T11:01:28.837Z,2.07
2022-12-15T11:02:28.897Z,2.03
2022-12-15T11:03:29.338Z,2.16
2022-12-15T11:04:28.781Z,2.05
2022-12-15T11:05:28.679Z,1.90
2022-12-15T11:06:28.657Z,1.90
2022-12-15T11:07:28.649Z,2.00
2022-12-15T11:08:28.650Z,2.18
2022-12-15T11:09:28.639Z,2.27
2022-12-15T11:10:28.635Z,2.41
2022-12-15T11:11:28.635Z,2.39
2022-12-15T11:12:28.624Z,2.30
2022-12-15T11:13:34.806Z,2.53
2022-12-15T11:14:28.610Z,2.46
2022-12-15T11:15:28.719Z,2.54
2022-12-15T11:16:28.600Z,2.61
2022-12-15T11:17:28.590Z,2.72
2022-12-15T11:18:28.582Z,2.63
2022-12-15T11:19:28.575Z,2.75
2022-12-15T11:20:28.570Z,2.78
2022-12-15T11:21:28.571Z,2.81
2022-12-15T11:22:28.563Z,2.79
2022-12-15T11:23:28.895Z,2.79
2022-12-15T11:24:28.541Z,2.79
2022-12-15T11:25:28.535Z,2.77
2022-12-15T11:26:28.532Z,2.79
2022-12-15T11:27:28.537Z,2.87
2022-12-15T11:28:28.518Z,2.81
2022-12-15T11:29:28.551Z,2.77
2022-12-15T11:30:28.507Z,2.90
2022-12-15T11:31:28.505Z,3.06
2022-12-15T11:32:28.498Z,2.93
2022-12-15T11:33:29.096Z,2.95
2022-12-15T11:34:28.484Z,2.85
2022-12-15T11:35:28.481Z,2.85
2022-12-15T11:36:28.474Z,2.87
2022-12-15T11:37:34.258Z,2.84
2022-12-15T11:38:28.504Z,3.02
2022-12-15T11:39:28.456Z,3.15
2022-12-15T11:40:28.450Z,3.18
2022-12-15T11:41:28.446Z,3.10
2022-12-15T11:42:28.445Z,3.03
2022-12-15T11:43:28.906Z,3.06
2022-12-15T11:44:28.423Z,3.20
2022-12-15T11:45:28.452Z,3.14
2022-12-15T11:46:28.413Z,3.21
2022-12-15T11:47:28.407Z,3.26
2022-12-15T11:48:28.412Z,3.33
2022-12-15T11:49:28.399Z,3.45
2022-12-15T11:50:28.391Z,3.47
2022-12-15T11:51:28.400Z,3.42
2022-12-15T11:52:28.376Z,3.29
2022-12-15T11:53:28.882Z,3.24
2022-12-15T11:54:28.370Z,3.21
2022-12-15T11:55:32.229Z,3.21
2022-12-15T11:56:28.356Z,3.13
2022-12-15T11:57:28.350Z,3.17
2022-12-15T11:58:28.954Z,3.20
2022-12-15T11:59:28.337Z,3.24
2022-12-15T12:00:28.324Z,3.29
2022-12-15T12:01:28.412Z,3.36
2022-12-15T12:02:28.446Z,3.47
2022-12-15T12:03:28.389Z,3.35
2022-12-15T12:04:28.307Z,3.36
2022-12-15T12:05:28.303Z,3.36
2022-12-15T12:06:28.297Z,3.31
2022-12-15T12:07:28.300Z,3.23
2022-12-15T12:08:28.821Z,3.14
2022-12-15T12:09:28.285Z,3.14
2022-12-15T12:10:28.271Z,2.96
2022-12-15T12:11:28.352Z,3.13
2022-12-15T12:12:28.260Z,3.15
2022-12-15T12:13:28.261Z,3.23
2022-12-15T12:14:28.251Z,3.42
2022-12-15T12:15:28.250Z,3.50
2022-12-15T12:16:28.242Z,3.51
2022-12-15T12:17:28.264Z,3.47
2022-12-15T12:18:28.622Z,3.47
2022-12-15T12:19:28.309Z,3.55
2022-12-15T12:20:28.216Z,3.61
2022-12-15T12:21:28.219Z,3.66
2022-12-15T12:22:28.201Z,3.61
2022-12-15T12:23:28.195Z,3.62
2022-12-15T12:24:28.191Z,3.68
2022-12-15T12:25:28.194Z,3.78
2022-12-15T12:26:28.179Z,3.73
2022-12-15T12:27:28.178Z,3.66
2022-12-15T12:28:28.488Z,3.57
2022-12-15T12:29:28.165Z,3.51
2022-12-15T12:30:28.163Z,3.48
2022-12-15T12:31:28.154Z,3.45
2022-12-15T12:32:28.144Z,3.48
2022-12-15T12:33:28.171Z,3.45
2022-12-15T12:34:28.136Z,3.52
2022-12-15T12:36:28.132Z,3.26
2022-12-15T12:37:28.117Z,3.24
2022-12-15T12:38:28.493Z,3.21
2022-12-15T12:39:28.107Z,3.23
2022-12-15T12:40:28.098Z,3.21
2022-12-15T12:41:28.104Z,3.23
2022-12-15T12:42:28.087Z,3.28
2022-12-15T12:43:28.624Z,3.28
2022-12-15T12:44:28.113Z,3.15
2022-12-15T12:45:28.076Z,3.11
2022-12-15T12:46:28.064Z,3.03
2022-12-15T12:47:28.066Z,2.93
2022-12-15T12:48:28.060Z,2.93
2022-12-15T12:49:28.079Z,2.96
2022-12-15T12:50:28.043Z,2.85
2022-12-15T12:51:28.038Z,2.79
2022-12-15T12:52:28.029Z,2.79
2022-12-15T12:53:28.276Z,2.75
2022-12-15T12:54:28.018Z,2.82
2022-12-15T12:55:28.015Z,2.82
2022-12-15T12:56:28.006Z,2.79
2022-12-15T12:57:28.008Z,2.79
2022-12-15T12:58:27.997Z,2.92
2022-12-15T12:59:27.993Z,3.02
2022-12-15T13:00:28.076Z,3.13
2022-12-15T13:01:28.234Z,3.28
2022-12-15T13:02:28.200Z,3.28
2022-12-15T13:03:28.102Z,3.20
2022-12-15T13:04:27.971Z,3.18
2022-12-15T13:05:27.995Z,3.00
2022-12-15T13:06:27.947Z,3.02